sensor_id;sensor_type;location;lat;lon;timestamp;P1;durP1;ratioP1;P2;durP2;ratioP2
20314;SDS011;10315;50.958;13.080;2023-04-25T00:05:59;7.80;;;4.63;;
20314;SDS011;10315;50.958;13.080;2023-04-25T00:16:04;11.87;;;5.57;;
20314;SDS011;10315;50.958;13.080;2023-04-25T00:26:06;10.87;;;4.77;;
20314;SDS011;10315;50.958;13.080;2023-04-25T00:36:09;6.30;;;4.40;;
20314;SDS011;10315;50.958;13.080;2023-04-25T00:46:11;9.03;;;5.57;;
20314;SDS011;10315;50.958;13.080;2023-04-25T00:56:14;13.57;;;5.60;;
20314;SDS011;10315;50.958;13.080;2023-04-25T01:06:16;12.90;;;6.30;;
20314;SDS011;10315;50.958;13.080;2023-04-25T01:16:19;9.37;;;5.60;;
20314;SDS011;10315;50.958;13.080;2023-04-25T01:26:25;11.53;;;6.17;;
20314;SDS011;10315;50.958;13.080;2023-04-25T01:36:27;10.27;;;5.83;;
20314;SDS011;10315;50.958;13.080;2023-04-25T01:46:30;12.33;;;6.27;;
20314;SDS011;10315;50.958;13.080;2023-04-25T01:56:32;12.03;;;6.73;;
20314;SDS011;10315;50.958;13.080;2023-04-25T02:06:38;16.10;;;6.60;;
20314;SDS011;10315;50.958;13.080;2023-04-25T02:16:41;14.30;;;7.00;;
20314;SDS011;10315;50.958;13.080;2023-04-25T02:26:44;14.13;;;6.40;;
20314;SDS011;10315;50.958;13.080;2023-04-25T02:36:47;11.47;;;6.43;;
20314;SDS011;10315;50.958;13.080;2023-04-25T02:46:51;14.47;;;7.50;;
20314;SDS011;10315;50.958;13.080;2023-04-25T02:56:52;14.20;;;6.83;;
20314;SDS011;10315;50.958;13.080;2023-04-25T03:06:55;14.70;;;6.77;;
20314;SDS011;10315;50.958;13.080;2023-04-25T03:16:57;14.83;;;6.93;;
20314;SDS011;10315;50.958;13.080;2023-04-25T03:27:00;11.40;;;5.87;;
20314;SDS011;10315;50.958;13.080;2023-04-25T03:37:01;12.93;;;6.40;;
20314;SDS011;10315;50.958;13.080;2023-04-25T03:47:06;11.23;;;6.00;;
20314;SDS011;10315;50.958;13.080;2023-04-25T03:57:08;14.83;;;6.90;;
20314;SDS011;10315;50.958;13.080;2023-04-25T04:07:11;12.37;;;6.87;;
20314;SDS011;10315;50.958;13.080;2023-04-25T04:17:13;17.07;;;6.67;;
20314;SDS011;10315;50.958;13.080;2023-04-25T04:27:18;12.77;;;6.60;;
20314;SDS011;10315;50.958;13.080;2023-04-25T04:37:21;13.93;;;6.80;;
20314;SDS011;10315;50.958;13.080;2023-04-25T04:47:24;11.20;;;6.87;;
20314;SDS011;10315;50.958;13.080;2023-04-25T04:57:30;11.67;;;6.23;;
20314;SDS011;10315;50.958;13.080;2023-04-25T05:07:34;16.50;;;6.50;;
20314;SDS011;10315;50.958;13.080;2023-04-25T05:17:35;11.30;;;6.17;;
20314;SDS011;10315;50.958;13.080;2023-04-25T05:27:38;9.33;;;5.37;;
20314;SDS011;10315;50.958;13.080;2023-04-25T05:37:40;12.73;;;5.00;;
20314;SDS011;10315;50.958;13.080;2023-04-25T05:47:46;8.50;;;5.03;;
20314;SDS011;10315;50.958;13.080;2023-04-25T05:57:47;8.53;;;3.87;;
20314;SDS011;10315;50.958;13.080;2023-04-25T06:07:50;10.30;;;4.93;;
20314;SDS011;10315;50.958;13.080;2023-04-25T06:17:52;11.93;;;5.47;;
20314;SDS011;10315;50.958;13.080;2023-04-25T06:27:55;9.67;;;5.60;;
20314;SDS011;10315;50.958;13.080;2023-04-25T06:37:56;9.73;;;5.00;;
20314;SDS011;10315;50.958;13.080;2023-04-25T06:47:59;9.13;;;4.32;;
20314;SDS011;10315;50.958;13.080;2023-04-25T06:58:03;5.07;;;3.60;;
20314;SDS011;10315;50.958;13.080;2023-04-25T07:08:06;8.05;;;3.75;;
20314;SDS011;10315;50.958;13.080;2023-04-25T07:18:07;8.18;;;2.90;;
20314;SDS011;10315;50.958;13.080;2023-04-25T07:28:10;2.95;;;2.55;;
20314;SDS011;10315;50.958;13.080;2023-04-25T07:38:13;6.57;;;3.47;;
20314;SDS011;10315;50.958;13.080;2023-04-25T07:48:17;4.30;;;3.00;;
20314;SDS011;10315;50.958;13.080;2023-04-25T07:58:19;3.60;;;2.95;;
20314;SDS011;10315;50.958;13.080;2023-04-25T08:08:23;5.70;;;3.65;;
20314;SDS011;10315;50.958;13.080;2023-04-25T08:18:24;9.10;;;3.43;;
20314;SDS011;10315;50.958;13.080;2023-04-25T08:28:28;8.33;;;3.20;;
20314;SDS011;10315;50.958;13.080;2023-04-25T08:38:29;5.17;;;3.60;;
20314;SDS011;10315;50.958;13.080;2023-04-25T08:48:32;7.70;;;4.07;;
20314;SDS011;10315;50.958;13.080;2023-04-25T08:58:36;6.87;;;3.90;;
20314;SDS011;10315;50.958;13.080;2023-04-25T09:08:39;5.03;;;3.93;;
20314;SDS011;10315;50.958;13.080;2023-04-25T09:18:41;7.00;;;4.03;;
20314;SDS011;10315;50.958;13.080;2023-04-25T09:28:45;9.07;;;5.23;;
20314;SDS011;10315;50.958;13.080;2023-04-25T09:38:47;8.43;;;5.07;;
20314;SDS011;10315;50.958;13.080;2023-04-25T09:48:51;10.70;;;4.97;;
20314;SDS011;10315;50.958;13.080;2023-04-25T09:58:53;9.77;;;5.00;;
20314;SDS011;10315;50.958;13.080;2023-04-25T10:08:57;8.53;;;5.13;;
20314;SDS011;10315;50.958;13.080;2023-04-25T10:18:59;12.53;;;5.80;;
20314;SDS011;10315;50.958;13.080;2023-04-25T10:29:02;16.47;;;10.13;;
20314;SDS011;10315;50.958;13.080;2023-04-25T10:39:05;14.63;;;7.03;;
20314;SDS011;10315;50.958;13.080;2023-04-25T10:49:10;9.00;;;3.53;;
20314;SDS011;10315;50.958;13.080;2023-04-25T10:59:12;10.80;;;3.73;;
20314;SDS011;10315;50.958;13.080;2023-04-25T11:09:17;8.07;;;3.00;;
20314;SDS011;10315;50.958;13.080;2023-04-25T11:19:19;8.47;;;3.50;;
20314;SDS011;10315;50.958;13.080;2023-04-25T11:29:23;7.00;;;3.40;;
20314;SDS011;10315;50.958;13.080;2023-04-25T11:39:24;9.43;;;2.50;;
20314;SDS011;10315;50.958;13.080;2023-04-25T11:49:31;10.87;;;2.90;;
20314;SDS011;10315;50.958;13.080;2023-04-25T11:59:32;5.63;;;2.63;;
20314;SDS011;10315;50.958;13.080;2023-04-25T12:09:35;10.23;;;3.27;;
20314;SDS011;10315;50.958;13.080;2023-04-25T12:19:37;10.47;;;3.47;;
20314;SDS011;10315;50.958;13.080;2023-04-25T12:29:49;10.30;;;3.70;;
20314;SDS011;10315;50.958;13.080;2023-04-25T12:39:52;13.13;;;4.57;;
20314;SDS011;10315;50.958;13.080;2023-04-25T12:49:55;10.10;;;4.00;;
20314;SDS011;10315;50.958;13.080;2023-04-25T12:59:58;15.30;;;4.70;;
20314;SDS011;10315;50.958;13.080;2023-04-25T13:10:01;7.73;;;4.67;;
20314;SDS011;10315;50.958;13.080;2023-04-25T13:20:03;11.67;;;4.53;;
20314;SDS011;10315;50.958;13.080;2023-04-25T13:30:10;9.67;;;5.17;;
20314;SDS011;10315;50.958;13.080;2023-04-25T13:40:12;15.93;;;6.37;;
20314;SDS011;10315;50.958;13.080;2023-04-25T13:50:15;11.00;;;6.13;;
20314;SDS011;10315;50.958;13.080;2023-04-25T14:00:17;11.53;;;5.63;;
20314;SDS011;10315;50.958;13.080;2023-04-25T14:10:21;14.13;;;5.70;;
20314;SDS011;10315;50.958;13.080;2023-04-25T14:20:23;15.63;;;5.87;;
20314;SDS011;10315;50.958;13.080;2023-04-25T14:30:26;15.13;;;5.67;;
20314;SDS011;10315;50.958;13.080;2023-04-25T14:40:27;13.33;;;6.90;;
20314;SDS011;10315;50.958;13.080;2023-04-25T14:50:36;4.30;;;2.50;;
20314;SDS011;10315;50.958;13.080;2023-04-25T15:00:37;13.83;;;3.30;;
20314;SDS011;10315;50.958;13.080;2023-04-25T15:10:41;7.00;;;3.00;;
20314;SDS011;10315;50.958;13.080;2023-04-25T15:20:42;9.13;;;2.60;;
20314;SDS011;10315;50.958;13.080;2023-04-25T15:30:45;7.60;;;2.77;;
20314;SDS011;10315;50.958;13.080;2023-04-25T15:40:47;6.03;;;2.63;;
20314;SDS011;10315;50.958;13.080;2023-04-25T15:50:50;12.40;;;2.47;;
20314;SDS011;10315;50.958;13.080;2023-04-25T16:00:51;6.53;;;2.33;;
20314;SDS011;10315;50.958;13.080;2023-04-25T16:10:55;11.40;;;2.50;;
20314;SDS011;10315;50.958;13.080;2023-04-25T16:20:57;10.97;;;2.47;;
20314;SDS011;10315;50.958;13.080;2023-04-25T16:31:00;7.37;;;2.40;;
20314;SDS011;10315;50.958;13.080;2023-04-25T16:41:02;7.80;;;2.40;;
20314;SDS011;10315;50.958;13.080;2023-04-25T16:51:05;8.23;;;2.20;;
20314;SDS011;10315;50.958;13.080;2023-04-25T17:01:06;5.97;;;2.30;;
20314;SDS011;10315;50.958;13.080;2023-04-25T17:11:09;5.87;;;2.43;;
20314;SDS011;10315;50.958;13.080;2023-04-25T17:21:11;5.17;;;1.93;;
20314;SDS011;10315;50.958;13.080;2023-04-25T17:31:14;6.47;;;2.43;;
20314;SDS011;10315;50.958;13.080;2023-04-25T17:41:16;4.73;;;2.30;;
20314;SDS011;10315;50.958;13.080;2023-04-25T17:51:19;8.63;;;2.03;;
20314;SDS011;10315;50.958;13.080;2023-04-25T18:01:20;8.93;;;2.03;;
20314;SDS011;10315;50.958;13.080;2023-04-25T18:11:23;5.93;;;2.20;;
20314;SDS011;10315;50.958;13.080;2023-04-25T18:21:25;5.80;;;2.73;;
20314;SDS011;10315;50.958;13.080;2023-04-25T18:31:28;8.53;;;2.70;;
20314;SDS011;10315;50.958;13.080;2023-04-25T18:41:31;7.00;;;2.20;;
20314;SDS011;10315;50.958;13.080;2023-04-25T18:51:34;2.80;;;1.80;;
20314;SDS011;10315;50.958;13.080;2023-04-25T19:01:36;4.93;;;2.00;;
20314;SDS011;10315;50.958;13.080;2023-04-25T19:11:39;5.37;;;2.17;;
20314;SDS011;10315;50.958;13.080;2023-04-25T19:21:41;5.37;;;2.17;;
20314;SDS011;10315;50.958;13.080;2023-04-25T19:31:44;7.00;;;2.03;;
20314;SDS011;10315;50.958;13.080;2023-04-25T19:41:45;8.23;;;2.33;;
20314;SDS011;10315;50.958;13.080;2023-04-25T19:51:48;4.00;;;3.03;;
20314;SDS011;10315;50.958;13.080;2023-04-25T20:01:50;8.10;;;2.80;;
20314;SDS011;10315;50.958;13.080;2023-04-25T20:11:53;9.97;;;3.27;;
20314;SDS011;10315;50.958;13.080;2023-04-25T20:21:55;9.50;;;2.97;;
20314;SDS011;10315;50.958;13.080;2023-04-25T20:31:58;10.57;;;3.07;;
20314;SDS011;10315;50.958;13.080;2023-04-25T20:42:00;7.53;;;3.13;;
20314;SDS011;10315;50.958;13.080;2023-04-25T20:52:03;3.30;;;2.40;;
20314;SDS011;10315;50.958;13.080;2023-04-25T21:02:05;7.57;;;2.90;;
20314;SDS011;10315;50.958;13.080;2023-04-25T21:12:10;9.13;;;2.93;;
20314;SDS011;10315;50.958;13.080;2023-04-25T21:22:12;5.60;;;2.60;;
20314;SDS011;10315;50.958;13.080;2023-04-25T21:32:15;2.57;;;2.00;;
20314;SDS011;10315;50.958;13.080;2023-04-25T21:42:19;13.00;;;3.40;;
20314;SDS011;10315;50.958;13.080;2023-04-25T21:52:22;8.37;;;3.20;;
20314;SDS011;10315;50.958;13.080;2023-04-25T22:02:27;7.47;;;2.80;;
20314;SDS011;10315;50.958;13.080;2023-04-25T22:12:31;5.67;;;3.13;;
20314;SDS011;10315;50.958;13.080;2023-04-25T22:22:34;8.97;;;3.30;;
20314;SDS011;10315;50.958;13.080;2023-04-25T22:32:37;9.20;;;3.20;;
20314;SDS011;10315;50.958;13.080;2023-04-25T22:42:55;6.97;;;3.40;;
20314;SDS011;10315;50.958;13.080;2023-04-25T22:52:58;6.17;;;2.90;;
20314;SDS011;10315;50.958;13.080;2023-04-25T23:02:59;4.43;;;2.30;;
20314;SDS011;10315;50.958;13.080;2023-04-25T23:13:03;6.07;;;2.97;;
20314;SDS011;10315;50.958;13.080;2023-04-25T23:23:05;5.03;;;2.33;;
20314;SDS011;10315;50.958;13.080;2023-04-25T23:33:08;2.70;;;2.10;;
20314;SDS011;10315;50.958;13.080;2023-04-25T23:43:10;4.73;;;2.67;;
20314;SDS011;10315;50.958;13.080;2023-04-25T23:53:13;4.30;;;2.10;;
